Time;durP1;ratioP1;P1;durP2;ratioP2;P2;SDS_P1;SDS_P2;PMS_P1;PMS_P2;Temp;Humidity;BMP_temperature;BMP_pressure;BME280_temperature;BME280_humidity;BME280_pressure;Samples;Min_cycle;Max_cycle;Signal;HPM_P1;HPM_P2
2023/04/22 00:00:47;;;;;;;2.45;1.42;;;21.10;58.70;;;;;;4988648;28;20051;-69
2023/04/22 00:03:14;;;;;;;3.08;1.88;;;21.10;58.80;;;;;;4989709;28;20142;-69
2023/04/22 00:05:43;;;;;;;2.75;1.90;;;21.10;58.80;;;;;;4990138;28;20773;-69
2023/04/22 00:08:11;;;;;;;2.20;1.55;;;21.10;58.80;;;;;;4988814;28;20574;-69
2023/04/22 00:10:38;;;;;;;2.55;1.88;;;21.10;58.80;;;;;;4997109;28;20050;-69
2023/04/22 00:13:05;;;;;;;2.30;1.50;;;21.10;58.80;;;;;;5009183;28;20066;-69
2023/04/22 00:15:33;;;;;;;2.50;1.85;;;21.10;58.80;;;;;;5008408;28;20061;-69
2023/04/22 00:17:59;;;;;;;3.45;2.30;;;21.10;58.80;;;;;;5009968;28;20048;-69
2023/04/22 00:20:26;;;;;;;2.58;1.80;;;21.10;58.80;;;;;;5009134;28;20065;-69
2023/04/22 00:22:53;;;;;;;2.63;1.70;;;21.10;58.90;;;;;;5009632;28;20050;-69
2023/04/22 00:25:21;;;;;;;2.47;1.50;;;21.10;58.90;;;;;;5009394;28;20435;-69
2023/04/22 00:27:48;;;;;;;2.67;1.80;;;21.10;58.90;;;;;;5008639;28;20061;-68
2023/04/22 00:30:15;;;;;;;3.20;1.77;;;21.00;58.90;;;;;;5009410;28;20399;-69
2023/04/22 00:32:42;;;;;;;2.25;1.55;;;21.10;59.00;;;;;;5009267;28;20058;-68
2023/04/22 00:35:09;;;;;;;2.65;1.55;;;21.00;58.90;;;;;;5008313;28;20081;-69
2023/04/22 00:37:36;;;;;;;2.83;1.77;;;21.00;58.90;;;;;;5009192;28;20115;-68
2023/04/22 00:40:05;;;;;;;3.05;1.83;;;21.00;58.90;;;;;;5009516;28;20056;-68
2023/04/22 00:42:34;;;;;;;2.60;1.80;;;21.00;58.90;;;;;;5009186;28;20053;-68
2023/04/22 00:45:02;;;;;;;2.63;1.92;;;21.00;59.60;;;;;;5007175;28;20050;-68
2023/04/22 00:47:31;;;;;;;3.45;1.88;;;21.10;59.00;;;;;;5009155;28;20053;-68
2023/04/22 00:50:00;;;;;;;2.75;1.50;;;21.00;59.00;;;;;;5009178;28;20053;-69
2023/04/22 00:52:27;;;;;;;2.60;1.55;;;21.10;59.00;;;;;;4993433;28;20058;-68
2023/04/22 00:54:54;;;;;;;2.80;1.92;;;21.00;58.90;;;;;;4988355;28;20088;-68
2023/04/22 00:57:21;;;;;;;3.03;1.60;;;21.00;59.00;;;;;;4989766;28;20063;-69
2023/04/22 00:59:50;;;;;;;2.35;1.50;;;21.00;59.00;;;;;;4989610;28;20046;-68
2023/04/22 01:02:17;;;;;;;3.17;1.85;;;21.00;59.00;;;;;;4988834;28;20054;-69
2023/04/22 01:04:45;;;;;;;2.28;1.80;;;21.00;59.00;;;;;;4989483;28;20149;-69
2023/04/22 01:07:12;;;;;;;2.70;1.67;;;21.00;59.00;;;;;;4989806;28;20085;-68
2023/04/22 01:09:39;;;;;;;2.40;1.73;;;21.00;59.00;;;;;;4988591;28;20094;-68
2023/04/22 01:12:06;;;;;;;2.80;1.73;;;21.00;59.00;;;;;;4988706;28;20054;-69
2023/04/22 01:14:34;;;;;;;2.67;1.83;;;21.00;59.00;;;;;;4977932;28;20110;-67
2023/04/22 01:17:03;;;;;;;3.10;1.38;;;21.00;59.10;;;;;;4987894;28;20046;-68
2023/04/22 01:19:31;;;;;;;2.78;1.95;;;21.00;59.10;;;;;;4990268;28;20054;-69
2023/04/22 01:21:59;;;;;;;3.30;1.70;;;20.90;59.00;;;;;;4989785;28;20061;-69
2023/04/22 01:24:28;;;;;;;2.53;1.83;;;21.00;59.10;;;;;;4989794;28;20130;-69
2023/04/22 01:26:55;;;;;;;2.35;1.67;;;21.00;59.10;;;;;;4988247;28;20108;-68
2023/04/22 01:29:22;;;;;;;2.72;1.75;;;20.90;59.00;;;;;;4988004;28;20057;-69
2023/04/22 01:31:49;;;;;;;2.78;1.85;;;21.00;59.10;;;;;;4991864;28;20046;-69
2023/04/22 01:34:16;;;;;;;2.53;1.67;;;21.00;59.10;;;;;;4993355;28;20065;-68
2023/04/22 01:36:44;;;;;;;3.22;1.75;;;21.00;59.10;;;;;;4994394;28;20058;-68
2023/04/22 01:39:11;;;;;;;2.53;1.85;;;20.90;59.10;;;;;;4991934;28;20073;-68
2023/04/22 01:41:40;;;;;;;3.05;1.67;;;20.90;59.10;;;;;;4993112;28;20047;-69
2023/04/22 01:44:07;;;;;;;2.85;1.42;;;20.90;59.10;;;;;;4993298;28;20054;-69
2023/04/22 01:46:34;;;;;;;2.38;1.60;;;20.90;59.10;;;;;;4993279;28;20046;-68
2023/04/22 01:49:01;;;;;;;2.45;1.42;;;20.90;59.80;;;;;;4993082;28;20054;-69
2023/04/22 01:51:28;;;;;;;2.78;1.85;;;20.90;59.10;;;;;;4993064;28;20049;-69
2023/04/22 01:53:55;;;;;;;3.05;1.90;;;20.90;59.20;;;;;;4992320;28;20108;-69
2023/04/22 01:56:22;;;;;;;2.75;1.75;;;20.90;59.20;;;;;;4991498;28;20061;-68
2023/04/22 01:58:50;;;;;;;2.40;1.45;;;20.90;59.20;;;;;;4988363;28;20504;-69
2023/04/22 02:01:17;;;;;;;3.35;2.40;;;20.90;59.20;;;;;;4973212;28;20055;-69
2023/04/22 02:03:44;;;;;;;3.10;1.75;;;20.90;59.20;;;;;;4981111;28;20058;-69
2023/04/22 02:06:11;;;;;;;2.70;1.73;;;20.90;59.20;;;;;;4992599;28;20049;-67
2023/04/22 02:08:38;;;;;;;2.85;1.50;;;20.90;59.30;;;;;;4992502;28;20058;-68
2023/04/22 02:11:05;;;;;;;2.50;1.40;;;20.90;59.20;;;;;;5011573;28;20046;-68
2023/04/22 02:13:36;;;;;;;2.38;1.40;;;20.90;59.20;;;;;;5000481;28;20097;-68
2023/04/22 02:16:06;;;;;;;2.33;1.40;;;20.90;59.20;;;;;;4993127;28;20073;-68
2023/04/22 02:18:32;;;;;;;2.88;1.90;;;20.90;59.20;;;;;;4992555;28;20511;-68
2023/04/22 02:20:59;;;;;;;3.00;1.70;;;20.80;59.20;;;;;;4991925;28;20058;-68
2023/04/22 02:23:27;;;;;;;3.25;1.88;;;20.90;59.30;;;;;;4991658;28;20491;-68
2023/04/22 02:25:55;;;;;;;3.42;1.90;;;20.80;59.20;;;;;;4994205;28;20058;-68
2023/04/22 02:28:22;;;;;;;2.83;1.80;;;20.80;59.20;;;;;;4995514;28;20064;-69
2023/04/22 02:30:49;;;;;;;2.67;1.77;;;20.80;59.20;;;;;;4977535;28;20065;-68
2023/04/22 02:33:18;;;;;;;3.03;1.80;;;20.80;59.30;;;;;;5005610;28;20058;-68
2023/04/22 02:35:45;;;;;;;3.05;1.58;;;20.80;59.30;;;;;;4991879;28;20455;-68
2023/04/22 02:38:12;;;;;;;2.47;1.63;;;20.80;59.30;;;;;;4992480;28;20054;-68
2023/04/22 02:40:39;;;;;;;3.05;1.75;;;20.80;59.30;;;;;;4990633;28;20451;-69
2023/04/22 02:43:06;;;;;;;2.72;1.85;;;20.80;59.30;;;;;;4993190;28;20414;-68
2023/04/22 02:45:33;;;;;;;2.42;1.70;;;20.80;59.30;;;;;;5010275;28;20050;-68
2023/04/22 02:48:00;;;;;;;2.70;1.90;;;20.80;59.40;;;;;;5011569;28;20458;-68
2023/04/22 02:50:28;;;;;;;2.83;1.65;;;20.80;59.30;;;;;;4998933;28;20054;-68
2023/04/22 02:52:55;;;;;;;2.33;1.63;;;20.80;59.40;;;;;;4991723;28;20057;-69
2023/04/22 02:55:23;;;;;;;2.20;1.55;;;20.70;59.30;;;;;;4991653;28;20503;-68
2023/04/22 02:57:50;;;;;;;3.30;2.20;;;20.80;59.40;;;;;;4991096;28;20141;-68
2023/04/22 03:00:17;;;;;;;2.85;1.60;;;20.70;60.00;;;;;;4991907;28;20484;-69
2023/04/22 03:02:44;;;;;;;2.33;1.42;;;20.70;59.30;;;;;;4990049;28;20065;-69
2023/04/22 03:05:11;;;;;;;3.08;1.40;;;20.70;59.40;;;;;;4991441;28;20054;-68
2023/04/22 03:07:39;;;;;;;2.38;1.40;;;20.70;59.40;;;;;;4991706;28;20046;-69
2023/04/22 03:10:08;;;;;;;3.00;2.00;;;20.70;59.40;;;;;;4991224;28;20073;-68
2023/04/22 03:12:35;;;;;;;2.60;1.70;;;20.70;59.40;;;;;;4988903;28;20514;-69
2023/04/22 03:15:02;;;;;;;2.53;1.60;;;20.70;59.50;;;;;;4982735;28;20050;-69
2023/04/22 03:17:29;;;;;;;2.50;1.88;;;20.70;59.40;;;;;;4979112;28;20217;-69
2023/04/22 03:19:56;;;;;;;3.03;1.63;;;20.70;59.40;;;;;;4990165;28;20120;-69
2023/04/22 03:22:23;;;;;;;3.50;1.60;;;20.70;59.50;;;;;;4991021;28;20061;-68
2023/04/22 03:24:51;;;;;;;2.90;2.00;;;20.70;59.40;;;;;;4990878;28;20057;-69
2023/04/22 03:27:18;;;;;;;2.42;1.75;;;20.70;59.40;;;;;;4989673;28;20062;-69
2023/04/22 03:29:45;;;;;;;2.75;1.40;;;20.70;59.40;;;;;;4990964;28;20050;-68
2023/04/22 03:32:12;;;;;;;3.20;1.73;;;20.70;59.40;;;;;;4990979;28;20054;-69
2023/04/22 03:34:39;;;;;;;2.42;1.70;;;20.70;59.50;;;;;;4990876;28;20051;-68
2023/04/22 03:37:06;;;;;;;2.35;1.73;;;20.70;59.50;;;;;;4989422;28;20069;-69
2023/04/22 03:39:33;;;;;;;2.35;1.35;;;20.60;59.50;;;;;;4991193;28;20077;-69
2023/04/22 03:42:02;;;;;;;2.50;1.80;;;20.70;59.50;;;;;;4989338;28;20057;-68
2023/04/22 03:44:29;;;;;;;2.92;1.50;;;20.70;59.50;;;;;;4989662;28;20077;-68
2023/04/22 03:46:56;;;;;;;2.88;1.83;;;20.70;59.50;;;;;;4990849;28;20053;-69
2023/04/22 03:49:23;;;;;;;2.30;1.42;;;20.70;59.50;;;;;;4990644;28;20500;-68
2023/04/22 03:51:50;;;;;;;2.75;1.88;;;20.60;59.50;;;;;;4991191;28;20061;-68
2023/04/22 03:54:16;;;;;;;2.53;1.85;;;20.60;59.50;;;;;;4990320;28;20046;-69
2023/04/22 03:56:43;;;;;;;2.88;1.60;;;20.60;59.50;;;;;;4990965;28;20050;-68
2023/04/22 03:59:12;;;;;;;2.80;1.90;;;20.60;59.50;;;;;;4990731;28;20046;-69
2023/04/22 04:01:39;;;;;;;2.45;1.80;;;20.60;59.50;;;;;;4989577;28;20116;-68
2023/04/22 04:04:06;;;;;;;2.45;1.77;;;20.60;60.10;;;;;;4990000;28;20081;-68
2023/04/22 04:06:33;;;;;;;2.45;1.58;;;20.60;59.50;;;;;;4990339;28;20058;-69
2023/04/22 04:09:00;;;;;;;3.00;1.60;;;20.60;59.50;;;;;;4999399;28;20128;-68
2023/04/22 04:11:27;;;;;;;2.53;1.65;;;20.60;59.50;;;;;;5009818;28;20072;-68
2023/04/22 04:13:54;;;;;;;2.85;1.88;;;20.60;59.50;;;;;;4986945;28;20073;-68
2023/04/22 04:16:23;;;;;;;2.65;1.52;;;20.60;59.50;;;;;;4973720;28;20058;-68
2023/04/22 04:18:50;;;;;;;2.63;1.58;;;20.60;59.50;;;;;;4969871;28;20059;-68
2023/04/22 04:21:18;;;;;;;2.83;1.75;;;20.60;59.50;;;;;;4970944;28;20102;-68
2023/04/22 04:23:44;;;;;;;2.70;1.83;;;20.60;59.50;;;;;;4970761;28;20055;-68
2023/04/22 04:26:13;;;;;;;2.40;1.70;;;20.60;59.50;;;;;;4983432;28;20112;-68
2023/04/22 04:28:40;;;;;;;2.45;1.60;;;20.60;59.50;;;;;;4988945;28;20065;-68
2023/04/22 04:31:07;;;;;;;2.63;1.80;;;20.50;59.40;;;;;;4989931;28;20053;-67
2023/04/22 04:33:36;;;;;;;2.80;1.80;;;20.50;59.40;;;;;;4988723;28;20570;-68
2023/04/22 04:36:03;;;;;;;3.70;1.88;;;20.50;59.40;;;;;;4990088;28;20051;-68
2023/04/22 04:38:31;;;;;;;2.40;1.50;;;20.50;59.40;;;;;;4988182;28;20054;-68
2023/04/22 04:40:58;;;;;;;3.45;1.92;;;20.50;59.40;;;;;;4989858;28;20408;-69
2023/04/22 04:43:25;;;;;;;2.78;1.70;;;20.50;59.40;;;;;;5003401;28;20057;-68
2023/04/22 04:45:52;;;;;;;3.15;1.95;;;20.50;59.40;;;;;;5009598;28;20108;-69
2023/04/22 04:48:19;;;;;;;2.85;2.13;;;20.50;59.40;;;;;;5009232;28;20050;-68
2023/04/22 04:50:49;;;;;;;2.67;1.92;;;20.50;59.40;;;;;;5009219;28;20049;-68
2023/04/22 04:53:16;;;;;;;2.45;1.63;;;20.50;59.40;;;;;;5005400;28;20419;-68
2023/04/22 04:55:43;;;;;;;2.50;1.80;;;20.50;59.40;;;;;;4989470;28;20451;-68
2023/04/22 04:58:10;;;;;;;2.67;1.73;;;20.50;59.40;;;;;;4989452;28;20130;-68
2023/04/22 05:00:37;;;;;;;3.28;2.13;;;20.50;59.40;;;;;;5004467;28;20056;-69
2023/04/22 05:03:04;;;;;;;2.53;1.65;;;20.50;60.10;;;;;;5008896;28;20083;-68
2023/04/22 05:05:31;;;;;;;2.83;1.63;;;20.50;59.40;;;;;;5009306;28;20050;-68
2023/04/22 05:07:59;;;;;;;2.08;1.42;;;20.50;59.40;;;;;;5011983;28;20050;-69
2023/04/22 05:10:26;;;;;;;2.53;1.70;;;20.50;59.40;;;;;;5013538;28;20057;-69
2023/04/22 05:12:53;;;;;;;2.30;1.73;;;20.50;59.40;;;;;;5013027;28;20104;-69
2023/04/22 05:15:20;;;;;;;3.03;1.85;;;20.50;59.40;;;;;;5013188;28;20176;-68
2023/04/22 05:17:47;;;;;;;2.60;1.70;;;20.50;59.40;;;;;;5012065;28;20064;-68
2023/04/22 05:20:14;;;;;;;2.88;1.65;;;20.50;59.40;;;;;;5012990;28;20557;-68
2023/04/22 05:22:42;;;;;;;2.40;1.83;;;20.50;59.40;;;;;;5012893;28;20605;-69
2023/04/22 05:25:11;;;;;;;2.50;1.67;;;20.50;60.10;;;;;;5001964;28;20415;-68
2023/04/22 05:27:37;;;;;;;2.55;1.50;;;20.50;59.40;;;;;;4992834;28;20054;-69
2023/04/22 05:30:06;;;;;;;2.72;2.35;;;20.50;59.40;;;;;;4993024;28;20046;-69
2023/04/22 05:32:33;;;;;;;2.70;1.73;;;20.50;59.40;;;;;;4993152;28;20054;-68
2023/04/22 05:35:00;;;;;;;2.28;1.52;;;20.50;59.40;;;;;;4993688;28;20051;-68
2023/04/22 05:37:27;;;;;;;3.35;1.98;;;20.50;59.40;;;;;;4993113;28;20050;-68
2023/04/22 05:39:54;;;;;;;2.65;1.67;;;20.50;59.70;;;;;;4993134;28;20082;-68
2023/04/22 05:42:22;;;;;;;3.03;1.90;;;20.50;59.40;;;;;;4993048;28;20046;-68
2023/04/22 05:44:50;;;;;;;2.70;1.83;;;20.50;59.40;;;;;;4992767;28;20058;-69
2023/04/22 05:47:16;;;;;;;2.38;1.60;;;20.50;59.40;;;;;;4991816;28;20503;-68
2023/04/22 05:49:43;;;;;;;2.53;1.67;;;20.50;59.40;;;;;;4993232;28;20077;-68
2023/04/22 05:52:10;;;;;;;2.67;1.63;;;20.50;59.40;;;;;;4977721;28;20042;-68
2023/04/22 05:54:37;;;;;;;2.65;1.70;;;20.50;59.40;;;;;;4992620;28;20478;-68
2023/04/22 05:57:04;;;;;;;2.28;1.58;;;20.50;59.40;;;;;;4991314;28;20050;-68
2023/04/22 05:59:32;;;;;;;2.50;1.63;;;20.50;60.00;;;;;;4992781;28;20522;-68
2023/04/22 06:01:59;;;;;;;2.95;1.75;;;20.50;59.40;;;;;;4983365;28;20049;-67
2023/04/22 06:04:26;;;;;;;2.95;1.88;;;20.50;59.30;;;;;;4980424;28;20039;-68
2023/04/22 06:06:53;;;;;;;2.55;1.80;;;20.50;59.30;;;;;;4983299;28;20054;-68
2023/04/22 06:09:21;;;;;;;3.17;2.20;;;20.50;59.40;;;;;;4991059;28;20054;-68
2023/04/22 06:11:48;;;;;;;2.55;1.75;;;20.50;59.40;;;;;;4991019;28;20104;-67
2023/04/22 06:14:15;;;;;;;2.03;1.52;;;20.50;59.30;;;;;;4992623;28;20128;-69
2023/04/22 06:16:43;;;;;;;2.30;1.58;;;20.50;59.30;;;;;;4992417;28;20073;-68
2023/04/22 06:19:10;;;;;;;2.72;1.35;;;20.50;59.30;;;;;;4992669;28;20050;-69
2023/04/22 06:21:39;;;;;;;2.15;1.60;;;20.60;59.40;;;;;;4992534;28;20051;-68
2023/04/22 06:24:07;;;;;;;2.30;1.70;;;20.60;59.40;;;;;;4991489;28;20455;-69
2023/04/22 06:26:34;;;;;;;2.40;1.63;;;20.50;59.30;;;;;;4992210;28;20050;-69
2023/04/22 06:29:04;;;;;;;2.40;1.77;;;20.60;59.40;;;;;;4992064;28;20050;-68
2023/04/22 06:31:31;;;;;;;2.10;1.30;;;20.50;59.30;;;;;;4992118;28;20454;-68
2023/04/22 06:33:59;;;;;;;2.35;1.60;;;20.60;59.40;;;;;;4992388;28;20050;-69
2023/04/22 06:36:27;;;;;;;2.42;1.45;;;20.50;59.40;;;;;;4992156;28;20046;-69
2023/04/22 06:38:54;;;;;;;3.60;1.73;;;20.50;59.30;;;;;;4990796;28;20097;-68
2023/04/22 06:41:21;;;;;;;2.63;1.95;;;20.50;59.30;;;;;;4990998;28;20081;-69
2023/04/22 06:43:49;;;;;;;2.85;1.98;;;20.50;59.30;;;;;;4990964;28;20050;-68
2023/04/22 06:46:16;;;;;;;2.40;1.52;;;20.60;59.40;;;;;;4991815;28;20418;-69
2023/04/22 06:48:44;;;;;;;3.03;2.08;;;20.60;59.40;;;;;;4990528;28;20061;-68
2023/04/22 06:51:12;;;;;;;2.55;1.55;;;20.60;59.40;;;;;;4991518;28;20058;-68
2023/04/22 06:53:39;;;;;;;2.50;1.83;;;20.60;59.40;;;;;;4991912;28;20046;-68
2023/04/22 06:56:06;;;;;;;2.45;1.70;;;20.60;59.40;;;;;;4990661;28;20058;-68
2023/04/22 06:58:33;;;;;;;2.72;1.40;;;20.60;59.40;;;;;;4992199;28;20050;-68
2023/04/22 07:01:00;;;;;;;2.53;1.55;;;20.60;59.30;;;;;;4990511;28;20051;-69
2023/04/22 07:03:27;;;;;;;2.67;1.73;;;20.60;59.30;;;;;;4991335;28;20545;-68
2023/04/22 07:05:54;;;;;;;2.35;1.45;;;20.60;59.30;;;;;;4991520;28;20503;-68
2023/04/22 07:08:22;;;;;;;3.10;1.80;;;20.60;59.30;;;;;;4990423;28;20514;-68
2023/04/22 07:10:49;;;;;;;3.35;1.98;;;20.60;59.30;;;;;;4990592;28;20062;-68
2023/04/22 07:13:16;;;;;;;2.80;1.80;;;20.60;59.30;;;;;;4983482;28;20047;-68
2023/04/22 07:15:45;;;;;;;5.00;2.22;;;20.60;59.30;;;;;;4997181;28;20061;-68
2023/04/22 07:18:12;;;;;;;2.75;1.90;;;20.60;59.30;;;;;;5010922;28;20054;-68
2023/04/22 07:20:39;;;;;;;2.65;1.55;;;20.60;59.30;;;;;;5010967;28;20050;-68
2023/04/22 07:23:06;;;;;;;2.60;1.42;;;20.60;60.00;;;;;;5009858;28;20061;-69
2023/04/22 07:25:34;;;;;;;3.03;2.00;;;20.60;59.20;;;;;;5009352;28;20060;-69
2023/04/22 07:28:01;;;;;;;2.45;1.70;;;20.60;59.20;;;;;;5009373;28;20054;-67
2023/04/22 07:30:28;;;;;;;2.75;1.80;;;20.60;59.20;;;;;;5009836;28;20054;-67
2023/04/22 07:32:55;;;;;;;2.40;1.50;;;20.60;59.20;;;;;;5000937;28;20058;-66
2023/04/22 07:35:22;;;;;;;2.97;1.67;;;20.60;59.20;;;;;;4991033;28;20085;-69
2023/04/22 07:37:49;;;;;;;3.13;1.80;;;20.60;59.20;;;;;;4991009;28;20057;-67
2023/04/22 07:40:16;;;;;;;2.50;1.63;;;20.60;59.20;;;;;;4990924;28;20058;-69
2023/04/22 07:42:45;;;;;;;2.65;1.80;;;20.60;59.20;;;;;;4990623;28;20058;-68
2023/04/22 07:45:12;;;;;;;2.35;1.77;;;20.60;59.20;;;;;;4991072;28;20137;-68
2023/04/22 07:47:39;;;;;;;2.80;1.75;;;20.60;59.10;;;;;;4990707;28;20054;-68
2023/04/22 07:50:07;;;;;;;2.53;1.80;;;20.70;59.20;;;;;;5001728;28;20132;-68
2023/04/22 07:52:35;;;;;;;2.40;1.90;;;20.70;59.20;;;;;;5009111;28;20054;-68
2023/04/22 07:55:02;;;;;;;2.25;1.23;;;20.70;59.20;;;;;;5008905;28;20053;-68
2023/04/22 07:57:29;;;;;;;3.15;1.92;;;20.70;59.20;;;;;;5010147;28;20068;-68
2023/04/22 07:59:57;;;;;;;2.75;1.52;;;20.70;59.10;;;;;;5010077;28;20045;-68
2023/04/22 08:02:24;;;;;;;2.67;1.60;;;20.70;59.10;;;;;;5010019;28;20090;-68
2023/04/22 08:04:51;;;;;;;2.88;1.70;;;20.70;59.10;;;;;;5009769;28;20046;-67
2023/04/22 08:07:18;;;;;;;2.63;1.70;;;20.70;59.10;;;;;;4997318;28;20058;-68
2023/04/22 08:09:45;;;;;;;2.60;1.63;;;20.80;59.10;;;;;;4990133;28;20526;-67
2023/04/22 08:12:13;;;;;;;2.90;2.10;;;20.80;59.10;;;;;;4987326;28;20054;-68
2023/04/22 08:14:40;;;;;;;2.20;1.52;;;20.80;59.00;;;;;;4983118;28;20058;-67
2023/04/22 08:17:08;;;;;;;2.25;1.60;;;20.80;59.00;;;;;;4971309;28;20730;-68
2023/04/22 08:19:35;;;;;;;2.28;1.60;;;20.80;59.00;;;;;;4970577;28;20061;-68
2023/04/22 08:22:02;;;;;;;2.00;1.45;;;20.80;58.90;;;;;;4970983;28;20102;-67
2023/04/22 08:24:29;;;;;;;2.40;1.60;;;20.90;59.00;;;;;;4986290;28;20077;-68
2023/04/22 08:26:57;;;;;;;2.80;1.88;;;20.90;59.00;;;;;;4988757;28;20050;-67
2023/04/22 08:29:24;;;;;;;2.40;1.90;;;20.90;58.90;;;;;;4988907;28;20074;-67
2023/04/22 08:31:51;;;;;;;2.25;1.38;;;20.90;58.90;;;;;;4988597;28;20062;-67
2023/04/22 08:34:20;;;;;;;2.17;1.52;;;20.90;58.80;;;;;;4989837;28;20050;-68
2023/04/22 08:36:47;;;;;;;2.25;1.80;;;20.90;58.80;;;;;;4988494;28;20058;-69
2023/04/22 08:39:14;;;;;;;2.60;2.00;;;21.00;58.80;;;;;;4989598;28;20046;-67
2023/04/22 08:41:45;;;;;;;3.40;1.88;;;21.00;58.80;;;;;;5004960;28;20507;-68
2023/04/22 08:44:14;;;;;;;3.50;2.25;;;21.00;58.80;;;;;;5007993;28;20096;-68
2023/04/22 08:46:41;;;;;;;2.85;1.73;;;21.00;59.40;;;;;;5009443;28;20487;-67
2023/04/22 08:49:08;;;;;;;2.63;1.52;;;21.00;58.70;;;;;;4994894;28;20078;-67
2023/04/22 08:51:37;;;;;;;2.55;1.65;;;21.10;58.70;;;;;;4988053;28;20050;-67
2023/04/22 08:54:05;;;;;;;2.30;1.67;;;21.10;58.70;;;;;;4989849;28;20062;-68
2023/04/22 08:56:32;;;;;;;2.85;1.50;;;21.10;58.60;;;;;;4988239;28;20058;-68
2023/04/22 08:58:59;;;;;;;2.88;1.90;;;21.10;58.60;;;;;;5008310;28;20072;-67
2023/04/22 09:01:29;;;;;;;2.65;1.80;;;21.20;58.60;;;;;;5009305;28;20054;-68
2023/04/22 09:03:58;;;;;;;2.80;1.95;;;21.20;58.60;;;;;;5008710;28;20064;-68
2023/04/22 09:06:26;;;;;;;;;;;21.20;58.50;;;;;;5009318;28;20048;-68
2023/04/22 09:08:54;;;;;;;2.10;1.38;;;21.20;58.60;;;;;;4993096;28;20440;-68
2023/04/22 09:11:21;;;;;;;2.85;1.83;;;21.20;58.50;;;;;;4989383;28;20058;-68
2023/04/22 09:13:48;;;;;;;2.50;1.60;;;21.20;58.50;;;;;;4981010;28;20109;-67
2023/04/22 09:16:15;;;;;;;2.78;1.90;;;21.20;58.50;;;;;;4976516;28;20058;-68
2023/04/22 09:18:44;;;;;;;2.88;1.75;;;21.30;58.50;;;;;;4968609;28;20062;-68
2023/04/22 09:21:12;;;;;;;2.20;1.55;;;21.30;58.60;;;;;;4968756;28;20389;-68
2023/04/22 09:23:50;;;;;;;2.38;1.50;;;21.30;59.20;;;;;;4969975;28;20058;-67
2023/04/22 09:26:21;;;;;;;2.58;1.60;;;21.30;58.60;;;;;;4968646;28;20062;-67
2023/04/22 09:28:51;;;;;;;2.20;1.55;;;21.30;58.50;;;;;;4970092;28;20488;-67
2023/04/22 09:31:19;;;;;;;2.10;1.50;;;21.40;58.60;;;;;;4978184;28;20050;-67
2023/04/22 09:33:50;;;;;;;3.70;1.80;;;21.40;58.60;;;;;;5007921;28;20487;-68
2023/04/22 09:36:21;;;;;;;3.50;1.88;;;21.40;58.60;;;;;;5008984;28;20049;-68
2023/04/22 09:38:56;;;;;;;2.33;1.52;;;21.40;58.60;;;;;;5008922;28;20085;-67
2023/04/22 09:41:32;;;;;;;2.30;1.40;;;21.40;58.60;;;;;;5008372;28;20538;-67
2023/04/22 09:44:01;;;;;;;2.17;1.20;;;21.40;58.60;;;;;;5007560;28;20502;-68
2023/04/22 09:46:28;;;;;;;2.80;1.90;;;21.40;58.60;;;;;;5000317;28;20043;-67
2023/04/22 09:48:57;;;;;;;2.30;1.50;;;21.40;58.60;;;;;;4980319;28;20061;-68
2023/04/22 09:51:26;;;;;;;2.58;1.60;;;21.50;58.60;;;;;;4989259;28;20089;-67
2023/04/22 09:54:00;;;;;;;2.40;1.52;;;21.50;58.60;;;;;;4992414;28;20475;-67
2023/04/22 09:56:47;;;;;;;2.90;1.73;;;21.50;58.60;;;;;;4993097;28;20446;-68
2023/04/22 09:59:15;;;;;;;2.20;1.42;;;21.50;58.60;;;;;;4991049;28;20121;-68
2023/04/22 10:01:42;;;;;;;3.03;1.77;;;21.50;58.60;;;;;;4992688;28;20061;-67
2023/04/22 10:04:10;;;;;;;2.20;1.30;;;21.60;58.60;;;;;;4991096;28;20058;-67
2023/04/22 10:06:37;;;;;;;2.50;1.80;;;21.60;58.60;;;;;;4992376;28;20407;-67
2023/04/22 10:09:05;;;;;;;2.60;1.70;;;21.60;58.60;;;;;;4992280;28;20108;-67
2023/04/22 10:11:33;;;;;;;2.72;1.60;;;21.60;58.60;;;;;;4992146;28;20100;-67
2023/04/22 10:14:02;;;;;;;2.53;1.50;;;21.70;58.60;;;;;;4981974;28;20506;-68
2023/04/22 10:16:32;;;;;;;2.05;1.23;;;21.70;58.60;;;;;;4977691;28;20077;-68
2023/04/22 10:19:03;;;;;;;2.55;1.50;;;21.70;58.60;;;;;;4972752;28;20055;-68
2023/04/22 10:21:31;;;;;;;2.50;1.60;;;21.70;58.60;;;;;;4973058;28;20078;-67
2023/04/22 10:23:59;;;;;;;2.13;1.63;;;21.80;58.70;;;;;;5008631;28;20064;-68
2023/04/22 10:26:42;;;;;;;2.38;1.42;;;21.80;58.70;;;;;;5010354;28;20060;-68
2023/04/22 10:29:15;;;;;;;2.22;1.42;;;21.80;58.70;;;;;;5010206;28;20057;-67
2023/04/22 10:31:43;;;;;;;2.50;1.40;;;21.80;58.60;;;;;;5011440;28;20423;-68
2023/04/22 10:34:11;;;;;;;2.80;1.55;;;21.80;58.60;;;;;;5011199;28;20054;-67
2023/04/22 10:36:53;;;;;;;2.10;1.20;;;21.80;58.60;;;;;;5011311;28;20061;-67
2023/04/22 10:39:21;;;;;;;2.60;1.52;;;21.80;58.70;;;;;;5010585;28;20169;-68
2023/04/22 10:41:53;;;;;;;2.20;1.33;;;21.80;58.70;;;;;;5010739;28;20049;-68
2023/04/22 10:44:22;;;;;;;2.38;1.73;;;21.90;58.80;;;;;;5010313;28;20531;-68
2023/04/22 10:46:59;;;;;;;2.42;1.50;;;21.80;58.70;;;;;;4991386;28;20043;-68
2023/04/22 10:49:29;;;;;;;2.33;1.42;;;21.90;58.70;;;;;;4991639;28;20081;-67
2023/04/22 10:51:58;;;;;;;2.78;1.67;;;21.90;58.70;;;;;;4991357;28;20061;-67
2023/04/22 10:54:57;;;;;;;2.63;1.63;;;21.90;58.80;;;;;;4990376;28;20085;-67
2023/04/22 10:57:36;;;;;;;2.40;1.55;;;21.90;58.80;;;;;;5003962;28;20487;-68
2023/04/22 11:00:23;;;;;;;2.40;1.38;;;21.90;58.70;;;;;;5009978;28;20116;-67
2023/04/22 11:02:53;;;;;;;2.50;1.50;;;21.90;58.80;;;;;;5011099;28;20517;-68
2023/04/22 11:05:22;;;;;;;2.00;1.25;;;22.00;58.70;;;;;;5010994;28;20057;-68
2023/04/22 11:07:52;;;;;;;2.47;1.38;;;21.90;58.70;;;;;;5004167;28;20085;-67
2023/04/22 11:10:39;;;;;;;2.28;1.48;;;21.90;58.70;;;;;;4991728;28;20505;-68
2023/04/22 11:13:08;;;;;;;2.15;1.30;;;22.00;58.80;;;;;;4989116;28;20069;-67
2023/04/22 11:15:40;;;;;;;2.35;1.45;;;22.00;58.80;;;;;;4974245;28;20054;-67
2023/04/22 11:18:16;;;;;;;2.45;1.30;;;22.00;58.80;;;;;;4970900;28;20050;-68
2023/04/22 11:20:44;;;;;;;2.17;1.42;;;22.10;58.80;;;;;;4970330;28;20055;-68
2023/04/22 11:23:11;;;;;;;2.30;1.60;;;22.00;58.70;;;;;;4971878;28;20522;-67
2023/04/22 11:25:38;;;;;;;2.08;1.30;;;22.10;58.80;;;;;;4971461;28;20059;-66
2023/04/22 11:28:05;;;;;;;2.35;1.45;;;22.10;58.80;;;;;;4971745;28;20046;-67
2023/04/22 11:30:32;;;;;;;2.08;1.30;;;22.10;59.50;;;;;;4977869;28;20050;-67
2023/04/22 11:33:01;;;;;;;2.33;1.63;;;22.20;58.80;;;;;;4991113;28;20057;-67
2023/04/22 11:35:30;;;;;;;4.13;1.40;;;22.20;58.80;;;;;;4990844;28;20420;-68
2023/04/22 11:37:59;;;;;;;2.20;1.40;;;22.20;58.80;;;;;;4991050;28;20058;-68
2023/04/22 11:40:28;;;;;;;2.35;1.85;;;22.20;58.80;;;;;;4990894;28;20141;-67
2023/04/22 11:42:56;;;;;;;2.08;1.27;;;22.20;58.80;;;;;;4990819;28;20073;-67
2023/04/22 11:45:23;;;;;;;2.33;1.40;;;22.30;58.80;;;;;;4990824;28;20130;-67
2023/04/22 11:47:51;;;;;;;1.90;1.27;;;22.20;58.70;;;;;;4991367;28;20373;-67
2023/04/22 11:50:25;;;;;;;1.98;1.13;;;22.30;58.80;;;;;;4990825;28;20058;-68
2023/04/22 11:52:54;;;;;;;2.00;1.45;;;22.30;58.80;;;;;;4990476;28;20515;-67
2023/04/22 11:55:23;;;;;;;1.80;0.95;;;22.30;58.80;;;;;;4990845;28;20042;-68
2023/04/22 11:57:57;;;;;;;2.42;1.45;;;22.30;58.70;;;;;;4990737;28;20046;-68
2023/04/22 12:00:28;;;;;;;2.33;1.45;;;22.40;58.80;;;;;;4990630;28;20039;-68
2023/04/22 12:03:01;;;;;;;2.53;1.70;;;22.40;58.80;;;;;;4989413;28;20172;-68
2023/04/22 12:05:38;;;;;;;1.98;1.42;;;22.40;58.70;;;;;;4989543;28;20042;-68
2023/04/22 12:08:10;;;;;;;2.45;1.10;;;22.40;58.70;;;;;;4989893;28;20054;-68
2023/04/22 12:10:42;;;;;;;2.50;1.63;;;22.40;58.70;;;;;;4990306;28;20089;-67
2023/04/22 12:13:09;;;;;;;2.15;1.38;;;22.50;58.70;;;;;;4989007;28;20054;-68
2023/04/22 12:15:41;;;;;;;1.98;1.23;;;22.50;58.70;;;;;;4989918;28;20526;-68
2023/04/22 12:18:08;;;;;;;2.50;1.30;;;22.50;58.60;;;;;;4988792;28;20050;-68
2023/04/22 12:20:38;;;;;;;2.30;1.50;;;22.60;58.70;;;;;;4990422;28;20050;-68
2023/04/22 12:23:05;;;;;;;2.40;1.55;;;22.60;58.70;;;;;;4970721;28;20053;-68
2023/04/22 12:25:33;;;;;;;2.20;1.30;;;22.60;58.70;;;;;;4969546;28;20062;-68
2023/04/22 12:28:00;;;;;;;2.40;1.50;;;22.60;58.70;;;;;;4969621;28;20109;-67
2023/04/22 12:30:27;;;;;;;1.92;1.02;;;22.70;58.70;;;;;;4969414;28;20727;-68
2023/04/22 12:32:55;;;;;;;2.08;1.27;;;22.70;58.70;;;;;;4970910;28;20527;-67
2023/04/22 12:35:22;;;;;;;2.20;1.15;;;22.60;59.30;;;;;;4970714;28;20500;-68
2023/04/22 12:37:50;;;;;;;2.10;1.10;;;22.70;58.70;;;;;;4972643;28;20134;-67
2023/04/22 12:40:17;;;;;;;1.80;1.33;;;22.70;58.70;;;;;;5009846;28;20144;-67
2023/04/22 12:42:44;;;;;;;2.38;1.38;;;22.70;58.70;;;;;;5001010;28;20050;-68
2023/04/22 12:45:11;;;;;;;2.17;1.58;;;22.70;58.70;;;;;;4990293;28;20054;-68
2023/04/22 12:47:38;;;;;;;2.15;1.40;;;22.70;58.70;;;;;;4989952;28;20054;-67
2023/04/22 12:50:07;;;;;;;2.28;1.65;;;22.70;58.80;;;;;;4989864;28;20491;-69
2023/04/22 12:52:35;;;;;;;2.40;2.00;;;22.60;58.80;;;;;;4989867;28;20051;-68